Time;durP1;ratioP1;P1;durP2;ratioP2;P2;SDS_P1;SDS_P2;PMS_P1;PMS_P2;Temp;Humidity;BMP_temperature;BMP_pressure;BME280_temperature;BME280_humidity;BME280_pressure;Samples;Min_cycle;Max_cycle;Signal;HPM_P1;HPM_P2
2023/05/14 00:01:13;;;;;;;9.68;6.75;;;;;;;8.46;69.14;100800.84;20743784;28;20209;-77
2023/05/14 00:11:15;;;;;;;11.13;8.07;;;;;;;8.28;69.08;100805.47;20731144;28;20246;-77
2023/05/14 00:21:17;;;;;;;11.57;8.07;;;;;;;8.59;67.62;100788.72;20732542;28;20252;-77
2023/05/14 00:31:19;;;;;;;12.73;10.17;;;;;;;8.31;68.84;100787.97;20745216;28;20260;-80
2023/05/14 00:41:22;;;;;;;10.43;9.33;;;;;;;7.93;69.37;100778.97;20752051;28;20946;-78
2023/05/14 00:51:24;;;;;;;9.50;8.60;;;;;;;8.07;67.88;100751.69;20739127;28;20201;-78
2023/05/14 01:01:27;;;;;;;11.47;9.13;;;;;;;7.74;70.16;100770.69;20729393;28;20283;-78
2023/05/14 01:11:42;;;;;;;9.60;8.63;;;;;;;7.78;70.84;100770.88;20735337;28;20197;-81
2023/05/14 01:21:44;;;;;;;9.30;8.03;;;;;;;7.44;71.26;100766.47;20739926;28;20291;-78
2023/05/14 01:31:48;;;;;;;9.30;8.30;;;;;;;7.61;69.67;100750.97;20764680;28;20256;-80
2023/05/14 01:41:51;;;;;;;9.63;8.13;;;;;;;7.41;69.66;100750.22;20736501;28;20253;-77
2023/05/14 01:51:53;;;;;;;9.20;8.30;;;;;;;7.14;70.21;100747.38;20746566;28;20256;-77
2023/05/14 02:01:55;;;;;;;10.30;8.50;;;;;;;7.02;71.34;100747.03;20741165;28;20524;-80
2023/05/14 02:11:58;;;;;;;10.70;9.53;;;;;;;7.22;70.88;100751.47;20738209;28;20331;-77
2023/05/14 02:22:00;;;;;;;14.23;9.33;;;;;;;7.33;70.55;100745.34;20838003;28;20250;-78
2023/05/14 02:32:02;;;;;;;10.55;9.55;;;;;;;7.44;70.36;100745.97;20803285;28;20236;-78
2023/05/14 02:42:05;;;;;;;11.23;9.27;;;;;;;7.21;70.69;100738.56;20842621;28;20303;-79
2023/05/14 02:52:07;;;;;;;9.63;8.63;;;;;;;7.16;70.47;100741.47;20844851;28;20189;-80
2023/05/14 03:02:10;;;;;;;10.47;9.23;;;;;;;7.18;71.21;100734.41;20804383;28;20240;-77
2023/05/14 03:12:13;;;;;;;10.57;9.50;;;;;;;6.90;71.42;100743.91;20800336;28;20877;-80
2023/05/14 03:22:15;;;;;;;10.48;9.48;;;;;;;6.93;71.65;100738.50;20785294;28;20271;-79
2023/05/14 03:32:18;;;;;;;9.40;8.60;;;;;;;7.07;71.16;100724.50;20796550;28;20192;-78
2023/05/14 03:42:20;;;;;;;9.80;8.80;;;;;;;7.30;69.90;100720.69;20800802;28;20499;-83
2023/05/14 03:52:22;;;;;;;9.50;8.63;;;;;;;6.71;72.18;100719.50;20817440;28;20193;-77
2023/05/14 04:02:24;;;;;;;8.77;7.97;;;;;;;6.77;71.86;100713.81;20802190;28;20242;-78
2023/05/14 04:12:27;;;;;;;9.17;8.30;;;;;;;6.81;71.08;100715.72;20796870;28;20270;-77
2023/05/14 04:22:29;;;;;;;8.97;8.07;;;;;;;7.04;70.67;100706.31;20830878;28;20242;-77
2023/05/14 04:32:31;;;;;;;9.17;8.27;;;;;;;6.92;70.93;100705.13;20824689;28;20193;-76
2023/05/14 04:42:33;;;;;;;9.90;8.07;;;;;;;7.02;70.99;100693.72;20816349;28;20220;-76
2023/05/14 04:52:35;;;;;;;8.63;7.53;;;;;;;6.64;73.00;100707.88;20823750;28;20247;-76
2023/05/14 05:02:37;;;;;;;9.30;8.30;;;;;;;7.15;70.78;100698.50;20818935;28;20216;-76
2023/05/14 05:12:40;;;;;;;11.00;9.07;;;;;;;7.82;69.37;100706.44;20833604;28;20221;-76
2023/05/14 05:22:42;;;;;;;9.90;9.00;;;;;;;7.81;69.24;100707.56;20813402;28;20231;-77
2023/05/14 05:32:44;;;;;;;11.00;9.83;;;;;;;7.88;69.14;100708.81;20830579;28;20278;-76
2023/05/14 05:42:46;;;;;;;9.70;8.70;;;;;;;8.09;69.58;100717.63;20830164;28;20594;-77
2023/05/14 05:52:48;;;;;;;9.80;8.77;;;;;;;8.15;70.10;100716.34;20828171;28;20679;-77
2023/05/14 06:02:50;;;;;;;10.70;9.60;;;;;;;8.48;69.74;100728.22;20830529;28;20197;-76
2023/05/14 06:12:52;;;;;;;11.52;10.32;;;;;;;9.09;67.96;100716.25;20826596;28;20224;-78
2023/05/14 06:22:54;;;;;;;16.97;11.40;;;;;;;9.41;67.80;100719.88;20816709;28;20266;-77
2023/05/14 06:32:57;;;;;;;13.10;11.00;;;;;;;9.96;65.86;100717.41;20809687;28;20192;-77
2023/05/14 06:42:59;;;;;;;12.50;10.33;;;;;;;10.09;65.20;100716.44;20825409;28;20220;-76
2023/05/14 06:53:01;;;;;;;10.77;9.47;;;;;;;10.60;62.09;100715.63;20803397;28;20227;-76
2023/05/14 07:03:03;;;;;;;9.60;8.70;;;;;;;10.96;59.89;100706.81;20824608;28;20242;-76
2023/05/14 07:13:05;;;;;;;8.55;7.75;;;;;;;11.16;59.55;100698.75;20824068;28;20228;-75
2023/05/14 07:23:07;;;;;;;9.93;5.60;;;;;;;11.79;54.14;100689.31;20804570;28;20204;-76
2023/05/14 07:33:09;;;;;;;5.05;4.55;;;;;;;11.93;54.88;100672.09;20806505;28;20227;-76
2023/05/14 07:43:13;;;;;;;6.28;3.97;;;;;;;12.20;53.31;100673.59;20822300;28;20290;-76
2023/05/14 07:53:15;;;;;;;4.10;3.65;;;;;;;12.30;55.22;100671.16;20819619;28;20201;-76
2023/05/14 08:03:17;;;;;;;4.68;3.17;;;;;;;13.27;50.20;100664.19;20820692;28;20196;-76
2023/05/14 08:13:19;;;;;;;2.97;2.67;;;;;;;13.59;49.37;100662.44;20812900;28;20238;-81
2023/05/14 08:23:22;;;;;;;3.20;2.90;;;;;;;13.35;49.63;100660.41;20799005;28;20197;-76
2023/05/14 08:33:25;;;;;;;2.42;2.22;;;;;;;14.21;47.45;100664.03;20811862;28;20235;-76
2023/05/14 08:43:54;;;;;;;3.25;2.75;;;;;;;13.72;48.47;100659.22;20827872;28;20637;-76
2023/05/14 08:53:58;;;;;;;2.35;2.13;;;;;;;14.33;44.90;100639.25;20815488;28;20211;-76
2023/05/14 09:04:05;;;;;;;1.90;1.80;;;;;;;15.03;44.08;100633.91;20830000;28;20201;-77
2023/05/14 09:14:08;;;;;;;1.73;1.63;;;;;;;15.00;40.28;100625.31;20821233;28;20279;-76
2023/05/14 09:24:21;;;;;;;1.60;1.48;;;;;;;15.26;39.97;100624.81;20807023;28;20196;-77
2023/05/14 09:34:24;;;;;;;1.55;1.30;;;;;;;15.77;36.93;100614.25;20825495;28;20243;-78
2023/05/14 09:44:26;;;;;;;1.00;1.00;;;;;;;15.58;37.37;100612.19;20824819;28;20629;-80
2023/05/14 09:54:28;;;;;;;1.42;1.25;;;;;;;15.81;35.40;100601.75;20820665;28;20200;-76
2023/05/14 10:04:32;;;;;;;0.80;0.80;;;;;;;16.16;36.92;100596.06;20845165;28;20247;-79
2023/05/14 10:14:38;;;;;;;2.67;1.15;;;;;;;15.69;34.76;100587.63;20782076;28;20221;-79
2023/05/14 10:24:40;;;;;;;1.35;1.25;;;;;;;16.38;37.02;100568.81;20714504;28;20201;-80
2023/05/14 10:34:42;;;;;;;0.82;0.82;;;;;;;16.51;34.63;100567.47;20709469;28;20225;-77
2023/05/14 10:44:48;;;;;;;1.63;1.17;;;;;;;16.06;34.53;100573.03;20729143;28;20213;-78
2023/05/14 10:54:54;;;;;;;1.50;1.27;;;;;;;16.90;34.10;100555.97;20714306;28;20601;-76
2023/05/14 11:04:59;;;;;;;1.48;1.38;;;;;;;17.40;34.94;100551.94;20746266;28;20189;-78
2023/05/14 11:15:05;;;;;;;1.50;1.40;;;;;;;16.82;34.92;100537.13;20750383;28;20228;-76
2023/05/14 11:25:08;;;;;;;1.85;1.42;;;;;;;16.60;34.47;100536.69;20814057;28;20247;-79
2023/05/14 11:35:10;;;;;;;2.22;1.40;;;;;;;16.92;32.66;100525.88;20813455;28;20209;-76
2023/05/14 11:45:13;;;;;;;1.48;1.27;;;;;;;18.01;33.80;100520.22;20804057;28;20286;-77
2023/05/14 11:55:16;;;;;;;1.70;1.10;;;;;;;17.99;33.21;100508.38;20796938;28;20293;-77
2023/05/14 12:05:19;;;;;;;2.53;1.70;;;;;;;18.62;32.20;100495.19;20790680;28;20215;-77
2023/05/14 12:15:22;;;;;;;1.40;1.30;;;;;;;17.11;32.04;100487.88;20777236;28;20295;-78
2023/05/14 12:25:24;;;;;;;1.02;0.93;;;;;;;18.73;31.50;100464.66;20746851;28;20268;-80
2023/05/14 12:35:29;;;;;;;1.42;1.33;;;;;;;16.80;35.26;100477.63;20724832;28;20550;-77
2023/05/14 12:45:33;;;;;;;1.00;1.00;;;;;;;16.50;38.02;100482.34;20731450;28;20829;-78
2023/05/14 12:55:35;;;;;;;2.72;1.75;;;;;;;17.22;33.16;100468.91;20746642;28;20280;-77
2023/05/14 13:05:37;;;;;;;3.63;0.95;;;;;;;17.96;34.27;100454.03;20729579;28;20190;-77
2023/05/14 13:15:39;;;;;;;3.72;1.58;;;;;;;18.35;35.57;100425.88;20787307;28;20259;-76
2023/05/14 13:25:41;;;;;;;1.00;1.00;;;;;;;18.57;32.59;100427.75;20801266;28;20192;-76
2023/05/14 13:35:43;;;;;;;0.90;0.90;;;;;;;19.31;29.49;100410.31;20807512;28;20216;-76
2023/05/14 13:45:46;;;;;;;2.38;1.50;;;;;;;19.40;31.39;100405.06;20823451;28;20205;-74
2023/05/14 13:55:49;;;;;;;1.70;1.40;;;;;;;17.88;31.80;100412.28;20834294;28;20216;-76
2023/05/14 14:05:51;;;;;;;1.00;0.90;;;;;;;18.64;31.54;100382.06;20824967;28;20239;-79
2023/05/14 14:15:54;;;;;;;1.63;0.77;;;;;;;18.62;31.00;100378.78;20818290;28;20259;-75
2023/05/14 14:25:56;;;;;;;0.63;0.63;;;;;;;18.69;31.48;100367.38;20828284;28;20818;-81
2023/05/14 14:35:58;;;;;;;0.98;0.65;;;;;;;19.22;29.11;100355.47;20835710;28;20235;-81
2023/05/14 14:46:01;;;;;;;0.90;0.70;;;;;;;18.80;29.64;100343.75;20825058;28;20224;-74
2023/05/14 14:56:04;;;;;;;0.98;0.90;;;;;;;18.01;32.40;100348.81;20809102;28;20220;-80
2023/05/14 15:06:06;;;;;;;1.52;1.02;;;;;;;17.79;33.27;100346.94;20818318;28;20197;-74
2023/05/14 15:16:08;;;;;;;1.13;0.73;;;;;;;16.55;34.99;100357.47;20824069;28;20298;-74
2023/05/14 15:26:10;;;;;;;0.82;0.82;;;;;;;17.67;32.38;100344.34;20816817;28;20180;-74
2023/05/14 15:36:13;;;;;;;0.82;0.82;;;;;;;17.81;33.97;100333.09;20817614;28;20208;-77
2023/05/14 15:46:15;;;;;;;1.17;0.70;;;;;;;17.11;34.02;100339.53;20813748;28;20605;-76
2023/05/14 15:56:17;;;;;;;1.00;0.98;;;;;;;16.83;32.05;100327.78;20828585;28;20270;-83
2023/05/14 16:06:19;;;;;;;2.05;1.05;;;;;;;17.01;32.91;100331.69;20805623;28;20465;-75
2023/05/14 16:16:22;;;;;;;1.65;1.20;;;;;;;17.44;32.23;100335.13;20769847;28;20220;-74
2023/05/14 16:26:25;;;;;;;1.35;1.25;;;;;;;17.03;34.21;100331.28;20811172;28;20741;-73
2023/05/14 16:36:27;;;;;;;1.42;1.10;;;;;;;16.94;35.08;100335.25;20821677;28;20216;-74
2023/05/14 16:46:29;;;;;;;1.50;1.35;;;;;;;16.92;35.93;100331.97;20821910;28;20213;-74
2023/05/14 16:56:32;;;;;;;1.52;1.42;;;;;;;17.03;35.33;100332.13;20826762;28;20281;-73
2023/05/14 17:06:34;;;;;;;2.38;1.05;;;;;;;17.04;34.66;100333.75;20809534;28;20243;-79
2023/05/14 17:16:39;;;;;;;0.75;0.75;;;;;;;16.27;32.66;100334.19;20819124;28;20260;-77
2023/05/14 17:26:41;;;;;;;1.00;1.00;;;;;;;16.06;35.52;100330.97;20831524;28;20604;-77
2023/05/14 17:36:43;;;;;;;1.98;1.00;;;;;;;15.77;36.72;100336.13;20833147;28;20243;-79
2023/05/14 17:46:46;;;;;;;2.35;1.58;;;;;;;16.30;35.41;100338.31;20809512;28;20250;-85
2023/05/14 17:56:51;;;;;;;2.22;1.05;;;;;;;16.45;34.97;100340.16;20842001;28;20521;-79
2023/05/14 18:06:54;;;;;;;1.10;0.90;;;;;;;15.99;37.06;100345.09;20817577;28;20597;-76
2023/05/14 18:16:56;;;;;;;1.80;1.20;;;;;;;15.46;36.50;100357.06;20828171;28;20224;-81
2023/05/14 18:26:58;;;;;;;2.92;1.35;;;;;;;15.56;38.29;100378.38;20811401;28;20568;-76
2023/05/14 18:37:01;;;;;;;1.55;1.40;;;;;;;14.70;44.51;100400.41;20826015;28;20225;-78
2023/05/14 18:47:04;;;;;;;2.17;1.98;;;;;;;14.19;52.85;100382.47;20803981;28;20220;-78
2023/05/14 18:57:06;;;;;;;3.97;2.03;;;;;;;14.31;48.21;100357.63;20819197;28;20224;-81
2023/05/14 19:07:09;;;;;;;5.03;2.50;;;;;;;14.36;48.02;100365.88;20759267;28;20201;-81
2023/05/14 19:17:11;;;;;;;2.42;1.90;;;;;;;14.46;46.09;100362.47;20818986;28;20591;-84
2023/05/14 19:27:15;;;;;;;3.45;2.05;;;;;;;14.10;48.04;100369.28;20797347;28;20188;-84
2023/05/14 19:37:17;;;;;;;2.05;1.83;;;;;;;14.18;47.94;100375.94;20799798;28;20211;-81
2023/05/14 19:47:19;;;;;;;3.00;1.90;;;;;;;14.12;48.69;100371.72;20762521;28;20205;-80
2023/05/14 19:57:21;;;;;;;3.45;2.03;;;;;;;14.13;48.01;100381.88;20797207;28;20289;-79
2023/05/14 20:07:24;;;;;;;2.75;2.17;;;;;;;14.43;49.37;100382.25;20789479;28;20262;-81
2023/05/14 20:17:26;;;;;;;4.93;2.90;;;;;;;14.00;48.75;100386.00;20799280;28;20228;-83
2023/05/14 20:27:29;;;;;;;3.15;2.85;;;;;;;13.67;49.39;100391.97;20827570;28;20184;-77
2023/05/14 20:37:32;;;;;;;3.08;2.80;;;;;;;13.77;51.22;100380.94;20839823;28;20302;-83
2023/05/14 20:47:35;;;;;;;4.60;3.13;;;;;;;13.47;53.71;100379.63;20821537;28;20208;-84
2023/05/14 20:57:38;;;;;;;5.65;3.25;;;;;;;13.46;54.70;100375.16;20830373;28;20687;-77
2023/05/14 21:07:40;;;;;;;3.75;3.40;;;;;;;13.48;56.53;100371.94;20823557;28;20227;-78
2023/05/14 21:17:42;;;;;;;3.47;3.10;;;;;;;13.54;54.13;100357.16;20813951;28;20232;-77
2023/05/14 21:27:45;;;;;;;6.22;3.95;;;;;;;12.99;54.62;100364.47;20826992;28;20259;-76
2023/05/14 21:37:47;;;;;;;4.65;4.20;;;;;;;13.03;57.83;100358.91;20821194;28;20274;-77
2023/05/14 21:47:49;;;;;;;5.13;4.22;;;;;;;12.70;57.93;100359.03;20826534;28;20208;-77
2023/05/14 21:57:51;;;;;;;5.15;4.00;;;;;;;12.78;57.70;100351.63;20837155;28;20216;-77
2023/05/14 22:07:53;;;;;;;5.07;4.57;;;;;;;12.86;57.92;100353.47;20812920;28;20197;-77
2023/05/14 22:17:56;;;;;;;6.68;4.25;;;;;;;12.48;58.01;100353.88;20778420;28;20445;-78
2023/05/14 22:27:58;;;;;;;7.05;4.18;;;;;;;12.43;57.34;100342.78;20754134;28;20235;-77
2023/05/14 22:38:00;;;;;;;6.07;4.40;;;;;;;12.03;60.96;100329.34;20721883;28;20676;-77
2023/05/14 22:48:02;;;;;;;4.13;3.80;;;;;;;11.73;62.81;100325.88;20745270;28;20209;-77
2023/05/14 22:58:04;;;;;;;4.50;3.80;;;;;;;11.68;62.38;100314.78;20704357;28;20537;-76
2023/05/14 23:08:07;;;;;;;4.65;3.50;;;;;;;12.03;60.63;100313.16;20732387;28;20254;-79
2023/05/14 23:18:09;;;;;;;3.30;3.00;;;;;;;11.28;62.63;100306.03;20740936;28;20216;-77
2023/05/14 23:28:11;;;;;;;4.78;3.70;;;;;;;11.33;61.17;100300.16;20757987;28;20524;-78
2023/05/14 23:38:13;;;;;;;4.00;3.60;;;;;;;11.13;62.20;100306.69;20754394;28;20567;-77
2023/05/14 23:48:15;;;;;;;7.47;3.97;;;;;;;11.17;59.46;100293.50;20724755;28;20581;-77
2023/05/14 23:58:18;;;;;;;5.18;3.75;;;;;;;11.06;59.24;100275.34;20763159;28;20209;-77
